sensor_id;sensor_type;location;lat;lon;timestamp;P1;durP1;ratioP1;P2;durP2;ratioP2
59788;SDS011;47353;51.614;5.530;2023-12-07T00:01:21;19.42;;;13.10;;
59788;SDS011;47353;51.614;5.530;2023-12-07T00:03:47;19.65;;;14.05;;
59788;SDS011;47353;51.614;5.530;2023-12-07T00:06:12;21.27;;;14.23;;
59788;SDS011;47353;51.614;5.530;2023-12-07T00:08:38;19.15;;;13.70;;
59788;SDS011;47353;51.614;5.530;2023-12-07T00:11:03;19.10;;;13.60;;
59788;SDS011;47353;51.614;5.530;2023-12-07T00:13:28;15.73;;;10.77;;
59788;SDS011;47353;51.614;5.530;2023-12-07T00:15:54;15.18;;;11.30;;
59788;SDS011;47353;51.614;5.530;2023-12-07T00:18:19;16.52;;;11.95;;
59788;SDS011;47353;51.614;5.530;2023-12-07T00:20:45;16.45;;;11.98;;
59788;SDS011;47353;51.614;5.530;2023-12-07T00:23:10;19.67;;;13.07;;
59788;SDS011;47353;51.614;5.530;2023-12-07T00:25:36;17.58;;;12.52;;
59788;SDS011;47353;51.614;5.530;2023-12-07T00:28:01;14.93;;;11.00;;
59788;SDS011;47353;51.614;5.530;2023-12-07T00:30:26;11.73;;;9.13;;
59788;SDS011;47353;51.614;5.530;2023-12-07T00:32:52;17.80;;;11.18;;
59788;SDS011;47353;51.614;5.530;2023-12-07T00:35:17;17.75;;;12.20;;
59788;SDS011;47353;51.614;5.530;2023-12-07T00:37:46;14.60;;;11.18;;
59788;SDS011;47353;51.614;5.530;2023-12-07T00:40:12;14.27;;;10.15;;
59788;SDS011;47353;51.614;5.530;2023-12-07T00:42:37;13.63;;;9.43;;
59788;SDS011;47353;51.614;5.530;2023-12-07T00:45:03;13.85;;;10.52;;
59788;SDS011;47353;51.614;5.530;2023-12-07T00:47:29;14.77;;;10.88;;
59788;SDS011;47353;51.614;5.530;2023-12-07T00:49:54;17.80;;;12.68;;
59788;SDS011;47353;51.614;5.530;2023-12-07T00:52:19;18.27;;;12.82;;
59788;SDS011;47353;51.614;5.530;2023-12-07T00:54:45;18.88;;;13.75;;
59788;SDS011;47353;51.614;5.530;2023-12-07T00:57:10;16.05;;;11.82;;
59788;SDS011;47353;51.614;5.530;2023-12-07T00:59:35;18.27;;;12.45;;
59788;SDS011;47353;51.614;5.530;2023-12-07T01:02:05;17.77;;;12.85;;
59788;SDS011;47353;51.614;5.530;2023-12-07T01:04:33;16.08;;;11.38;;
59788;SDS011;47353;51.614;5.530;2023-12-07T01:06:58;15.27;;;10.55;;
59788;SDS011;47353;51.614;5.530;2023-12-07T01:09:24;14.18;;;9.98;;
59788;SDS011;47353;51.614;5.530;2023-12-07T01:11:50;12.27;;;9.18;;
59788;SDS011;47353;51.614;5.530;2023-12-07T01:14:16;15.18;;;11.27;;
59788;SDS011;47353;51.614;5.530;2023-12-07T01:16:42;16.38;;;12.13;;
59788;SDS011;47353;51.614;5.530;2023-12-07T01:19:08;17.10;;;11.77;;
59788;SDS011;47353;51.614;5.530;2023-12-07T01:21:34;17.83;;;12.02;;
59788;SDS011;47353;51.614;5.530;2023-12-07T01:23:59;14.80;;;11.07;;
59788;SDS011;47353;51.614;5.530;2023-12-07T01:26:25;22.30;;;13.40;;
59788;SDS011;47353;51.614;5.530;2023-12-07T01:28:50;18.92;;;13.65;;
59788;SDS011;47353;51.614;5.530;2023-12-07T01:31:15;21.13;;;13.75;;
59788;SDS011;47353;51.614;5.530;2023-12-07T01:33:42;24.08;;;15.70;;
59788;SDS011;47353;51.614;5.530;2023-12-07T01:36:08;21.70;;;14.80;;
59788;SDS011;47353;51.614;5.530;2023-12-07T01:38:33;21.38;;;14.02;;
59788;SDS011;47353;51.614;5.530;2023-12-07T01:40:58;18.38;;;12.93;;
59788;SDS011;47353;51.614;5.530;2023-12-07T01:43:24;21.17;;;14.30;;
59788;SDS011;47353;51.614;5.530;2023-12-07T01:45:49;18.17;;;12.55;;
59788;SDS011;47353;51.614;5.530;2023-12-07T01:48:19;22.17;;;13.60;;
59788;SDS011;47353;51.614;5.530;2023-12-07T01:50:45;23.70;;;15.13;;
59788;SDS011;47353;51.614;5.530;2023-12-07T01:53:11;21.95;;;14.35;;
59788;SDS011;47353;51.614;5.530;2023-12-07T01:55:37;20.10;;;13.05;;
59788;SDS011;47353;51.614;5.530;2023-12-07T01:58:04;19.20;;;13.27;;
59788;SDS011;47353;51.614;5.530;2023-12-07T02:00:31;22.55;;;14.02;;
59788;SDS011;47353;51.614;5.530;2023-12-07T02:02:58;22.05;;;14.10;;
59788;SDS011;47353;51.614;5.530;2023-12-07T02:05:24;21.98;;;13.98;;
59788;SDS011;47353;51.614;5.530;2023-12-07T02:07:50;20.77;;;14.00;;
59788;SDS011;47353;51.614;5.530;2023-12-07T02:10:16;19.73;;;13.35;;
59788;SDS011;47353;51.614;5.530;2023-12-07T02:12:44;22.98;;;15.30;;
59788;SDS011;47353;51.614;5.530;2023-12-07T02:15:09;22.30;;;14.98;;
59788;SDS011;47353;51.614;5.530;2023-12-07T02:20:43;19.88;;;12.65;;
59788;SDS011;47353;51.614;5.530;2023-12-07T02:23:14;17.85;;;12.43;;
59788;SDS011;47353;51.614;5.530;2023-12-07T02:25:51;17.88;;;12.55;;
59788;SDS011;47353;51.614;5.530;2023-12-07T02:28:17;15.70;;;11.75;;
59788;SDS011;47353;51.614;5.530;2023-12-07T02:30:43;17.70;;;12.05;;
59788;SDS011;47353;51.614;5.530;2023-12-07T02:33:09;18.33;;;12.60;;
59788;SDS011;47353;51.614;5.530;2023-12-07T02:35:35;23.35;;;14.82;;
59788;SDS011;47353;51.614;5.530;2023-12-07T02:38:02;19.65;;;12.98;;
59788;SDS011;47353;51.614;5.530;2023-12-07T02:40:28;17.33;;;11.90;;
59788;SDS011;47353;51.614;5.530;2023-12-07T02:42:55;22.40;;;14.50;;
59788;SDS011;47353;51.614;5.530;2023-12-07T02:45:22;23.02;;;14.95;;
59788;SDS011;47353;51.614;5.530;2023-12-07T02:47:47;25.42;;;15.70;;
59788;SDS011;47353;51.614;5.530;2023-12-07T02:50:13;27.02;;;16.15;;
59788;SDS011;47353;51.614;5.530;2023-12-07T02:52:39;25.05;;;15.20;;
59788;SDS011;47353;51.614;5.530;2023-12-07T02:55:04;30.35;;;16.75;;
59788;SDS011;47353;51.614;5.530;2023-12-07T02:57:30;26.02;;;16.10;;
59788;SDS011;47353;51.614;5.530;2023-12-07T02:59:58;28.52;;;17.63;;
59788;SDS011;47353;51.614;5.530;2023-12-07T03:02:24;33.72;;;19.08;;
59788;SDS011;47353;51.614;5.530;2023-12-07T03:04:50;28.58;;;18.77;;
59788;SDS011;47353;51.614;5.530;2023-12-07T03:07:15;30.42;;;18.70;;
59788;SDS011;47353;51.614;5.530;2023-12-07T03:09:41;28.90;;;19.23;;
59788;SDS011;47353;51.614;5.530;2023-12-07T03:12:06;54.60;;;20.05;;
59788;SDS011;47353;51.614;5.530;2023-12-07T03:14:32;30.75;;;20.20;;
59788;SDS011;47353;51.614;5.530;2023-12-07T03:16:57;35.45;;;19.63;;
59788;SDS011;47353;51.614;5.530;2023-12-07T03:19:23;30.88;;;19.25;;
59788;SDS011;47353;51.614;5.530;2023-12-07T03:21:48;76.75;;;21.65;;
59788;SDS011;47353;51.614;5.530;2023-12-07T03:24:14;91.80;;;23.00;;
59788;SDS011;47353;51.614;5.530;2023-12-07T03:26:40;35.75;;;18.63;;
59788;SDS011;47353;51.614;5.530;2023-12-07T03:29:05;31.17;;;19.75;;
59788;SDS011;47353;51.614;5.530;2023-12-07T03:31:31;32.40;;;19.70;;
59788;SDS011;47353;51.614;5.530;2023-12-07T03:33:56;80.43;;;21.25;;
59788;SDS011;47353;51.614;5.530;2023-12-07T03:36:22;40.58;;;20.30;;
59788;SDS011;47353;51.614;5.530;2023-12-07T03:38:48;33.83;;;19.70;;
59788;SDS011;47353;51.614;5.530;2023-12-07T03:41:14;66.45;;;21.77;;
59788;SDS011;47353;51.614;5.530;2023-12-07T03:50:04;46.35;;;20.45;;
59788;SDS011;47353;51.614;5.530;2023-12-07T03:52:30;28.33;;;18.80;;
59788;SDS011;47353;51.614;5.530;2023-12-07T03:54:55;30.92;;;19.10;;
59788;SDS011;47353;51.614;5.530;2023-12-07T03:57:20;47.65;;;18.85;;
59788;SDS011;47353;51.614;5.530;2023-12-07T03:59:46;26.83;;;17.67;;
59788;SDS011;47353;51.614;5.530;2023-12-07T04:02:12;27.55;;;17.67;;
59788;SDS011;47353;51.614;5.530;2023-12-07T04:04:37;89.90;;;22.27;;
59788;SDS011;47353;51.614;5.530;2023-12-07T04:07:03;45.20;;;20.23;;
59788;SDS011;47353;51.614;5.530;2023-12-07T04:09:29;70.65;;;21.35;;
59788;SDS011;47353;51.614;5.530;2023-12-07T04:11:55;45.03;;;20.25;;
59788;SDS011;47353;51.614;5.530;2023-12-07T04:14:21;32.00;;;19.83;;
59788;SDS011;47353;51.614;5.530;2023-12-07T04:16:46;29.25;;;19.00;;
59788;SDS011;47353;51.614;5.530;2023-12-07T04:19:12;83.68;;;21.55;;
59788;SDS011;47353;51.614;5.530;2023-12-07T04:21:38;27.92;;;18.45;;
59788;SDS011;47353;51.614;5.530;2023-12-07T04:24:03;33.28;;;19.40;;
59788;SDS011;47353;51.614;5.530;2023-12-07T04:26:29;48.28;;;19.50;;
59788;SDS011;47353;51.614;5.530;2023-12-07T04:28:54;29.27;;;18.00;;
59788;SDS011;47353;51.614;5.530;2023-12-07T04:31:20;27.52;;;17.40;;
59788;SDS011;47353;51.614;5.530;2023-12-07T04:33:46;29.38;;;17.75;;
59788;SDS011;47353;51.614;5.530;2023-12-07T04:42:55;28.85;;;17.92;;
59788;SDS011;47353;51.614;5.530;2023-12-07T04:45:20;33.53;;;18.98;;
59788;SDS011;47353;51.614;5.530;2023-12-07T04:47:46;31.48;;;19.65;;
59788;SDS011;47353;51.614;5.530;2023-12-07T04:50:11;35.83;;;20.08;;
59788;SDS011;47353;51.614;5.530;2023-12-07T04:52:37;33.58;;;19.45;;
59788;SDS011;47353;51.614;5.530;2023-12-07T04:55:03;31.73;;;18.90;;
59788;SDS011;47353;51.614;5.530;2023-12-07T04:57:31;39.55;;;20.50;;
59788;SDS011;47353;51.614;5.530;2023-12-07T04:59:58;39.58;;;20.60;;
59788;SDS011;47353;51.614;5.530;2023-12-07T05:02:23;39.50;;;21.02;;
59788;SDS011;47353;51.614;5.530;2023-12-07T05:04:49;71.10;;;22.13;;
59788;SDS011;47353;51.614;5.530;2023-12-07T05:07:14;35.03;;;20.17;;
59788;SDS011;47353;51.614;5.530;2023-12-07T05:09:40;39.50;;;21.25;;
59788;SDS011;47353;51.614;5.530;2023-12-07T05:12:05;35.97;;;19.00;;
59788;SDS011;47353;51.614;5.530;2023-12-07T05:14:31;76.10;;;20.73;;
59788;SDS011;47353;51.614;5.530;2023-12-07T05:16:57;80.15;;;20.35;;
59788;SDS011;47353;51.614;5.530;2023-12-07T05:19:23;54.15;;;19.42;;
59788;SDS011;47353;51.614;5.530;2023-12-07T05:21:49;44.45;;;17.27;;
59788;SDS011;47353;51.614;5.530;2023-12-07T05:24:15;40.50;;;17.15;;
59788;SDS011;47353;51.614;5.530;2023-12-07T05:26:43;48.03;;;16.73;;
59788;SDS011;47353;51.614;5.530;2023-12-07T05:29:14;34.30;;;15.48;;
59788;SDS011;47353;51.614;5.530;2023-12-07T05:31:39;39.15;;;15.02;;
59788;SDS011;47353;51.614;5.530;2023-12-07T05:34:06;30.08;;;14.60;;
59788;SDS011;47353;51.614;5.530;2023-12-07T05:36:32;39.47;;;16.38;;
59788;SDS011;47353;51.614;5.530;2023-12-07T05:38:57;33.83;;;15.98;;
59788;SDS011;47353;51.614;5.530;2023-12-07T05:41:23;37.97;;;15.75;;
59788;SDS011;47353;51.614;5.530;2023-12-07T05:43:50;30.20;;;15.48;;
59788;SDS011;47353;51.614;5.530;2023-12-07T05:46:16;118.55;;;17.55;;
59788;SDS011;47353;51.614;5.530;2023-12-07T05:48:41;27.50;;;13.73;;
59788;SDS011;47353;51.614;5.530;2023-12-07T05:51:16;27.17;;;12.98;;
59788;SDS011;47353;51.614;5.530;2023-12-07T05:53:43;78.32;;;13.88;;
59788;SDS011;47353;51.614;5.530;2023-12-07T05:56:09;36.67;;;12.70;;
59788;SDS011;47353;51.614;5.530;2023-12-07T05:58:35;26.45;;;12.63;;
59788;SDS011;47353;51.614;5.530;2023-12-07T06:01:00;35.47;;;11.95;;
59788;SDS011;47353;51.614;5.530;2023-12-07T06:03:27;23.65;;;11.88;;
59788;SDS011;47353;51.614;5.530;2023-12-07T06:05:53;58.35;;;14.38;;
59788;SDS011;47353;51.614;5.530;2023-12-07T06:08:18;31.75;;;12.40;;
59788;SDS011;47353;51.614;5.530;2023-12-07T06:10:44;20.10;;;11.05;;
59788;SDS011;47353;51.614;5.530;2023-12-07T06:13:09;22.50;;;10.80;;
59788;SDS011;47353;51.614;5.530;2023-12-07T06:15:35;30.35;;;12.13;;
59788;SDS011;47353;51.614;5.530;2023-12-07T06:18:01;76.22;;;12.90;;
59788;SDS011;47353;51.614;5.530;2023-12-07T06:20:26;64.70;;;12.40;;
59788;SDS011;47353;51.614;5.530;2023-12-07T06:22:52;37.10;;;11.43;;
59788;SDS011;47353;51.614;5.530;2023-12-07T06:25:17;25.48;;;10.75;;
59788;SDS011;47353;51.614;5.530;2023-12-07T06:27:42;21.60;;;9.63;;
59788;SDS011;47353;51.614;5.530;2023-12-07T06:30:09;21.05;;;10.25;;
59788;SDS011;47353;51.614;5.530;2023-12-07T06:32:35;20.73;;;10.48;;
59788;SDS011;47353;51.614;5.530;2023-12-07T06:35:01;36.30;;;10.80;;
59788;SDS011;47353;51.614;5.530;2023-12-07T06:37:29;25.20;;;11.20;;
59788;SDS011;47353;51.614;5.530;2023-12-07T06:39:54;50.30;;;11.63;;
59788;SDS011;47353;51.614;5.530;2023-12-07T06:42:20;47.90;;;10.38;;
59788;SDS011;47353;51.614;5.530;2023-12-07T06:44:48;28.25;;;10.02;;
59788;SDS011;47353;51.614;5.530;2023-12-07T06:47:14;28.05;;;10.65;;
59788;SDS011;47353;51.614;5.530;2023-12-07T06:49:40;37.55;;;10.73;;
59788;SDS011;47353;51.614;5.530;2023-12-07T06:52:05;23.00;;;10.00;;
59788;SDS011;47353;51.614;5.530;2023-12-07T06:54:31;21.90;;;9.95;;
59788;SDS011;47353;51.614;5.530;2023-12-07T06:56:56;24.98;;;10.13;;
59788;SDS011;47353;51.614;5.530;2023-12-07T06:59:22;29.73;;;10.63;;
59788;SDS011;47353;51.614;5.530;2023-12-07T07:01:47;31.98;;;9.98;;
59788;SDS011;47353;51.614;5.530;2023-12-07T07:04:12;19.58;;;9.88;;
59788;SDS011;47353;51.614;5.530;2023-12-07T07:06:39;38.15;;;10.98;;
59788;SDS011;47353;51.614;5.530;2023-12-07T07:09:05;73.18;;;11.90;;
59788;SDS011;47353;51.614;5.530;2023-12-07T07:11:30;82.07;;;11.63;;
59788;SDS011;47353;51.614;5.530;2023-12-07T07:13:56;23.67;;;9.93;;
59788;SDS011;47353;51.614;5.530;2023-12-07T07:16:21;71.28;;;11.80;;
59788;SDS011;47353;51.614;5.530;2023-12-07T07:18:46;43.85;;;11.13;;
59788;SDS011;47353;51.614;5.530;2023-12-07T07:21:12;19.00;;;9.43;;
59788;SDS011;47353;51.614;5.530;2023-12-07T07:23:38;21.83;;;9.80;;
59788;SDS011;47353;51.614;5.530;2023-12-07T07:26:03;21.08;;;10.40;;
59788;SDS011;47353;51.614;5.530;2023-12-07T07:28:28;27.15;;;10.65;;
59788;SDS011;47353;51.614;5.530;2023-12-07T07:30:54;19.48;;;9.40;;
59788;SDS011;47353;51.614;5.530;2023-12-07T07:33:19;29.52;;;11.15;;
59788;SDS011;47353;51.614;5.530;2023-12-07T07:35:45;24.25;;;9.75;;
59788;SDS011;47353;51.614;5.530;2023-12-07T07:38:10;33.38;;;10.45;;
59788;SDS011;47353;51.614;5.530;2023-12-07T07:40:36;19.85;;;10.00;;
59788;SDS011;47353;51.614;5.530;2023-12-07T07:43:01;21.00;;;9.68;;
59788;SDS011;47353;51.614;5.530;2023-12-07T07:45:27;21.77;;;9.90;;
59788;SDS011;47353;51.614;5.530;2023-12-07T07:47:52;29.50;;;11.63;;
59788;SDS011;47353;51.614;5.530;2023-12-07T07:50:19;22.83;;;11.32;;
59788;SDS011;47353;51.614;5.530;2023-12-07T07:52:44;23.98;;;10.95;;
59788;SDS011;47353;51.614;5.530;2023-12-07T07:55:10;21.33;;;10.65;;
59788;SDS011;47353;51.614;5.530;2023-12-07T07:57:35;27.92;;;10.25;;
59788;SDS011;47353;51.614;5.530;2023-12-07T08:00:01;32.50;;;11.18;;
59788;SDS011;47353;51.614;5.530;2023-12-07T08:05:30;32.65;;;11.85;;
59788;SDS011;47353;51.614;5.530;2023-12-07T08:07:55;64.43;;;12.60;;
59788;SDS011;47353;51.614;5.530;2023-12-07T08:10:21;24.75;;;11.43;;
59788;SDS011;47353;51.614;5.530;2023-12-07T08:12:46;28.08;;;12.95;;
59788;SDS011;47353;51.614;5.530;2023-12-07T08:15:12;28.67;;;12.23;;
59788;SDS011;47353;51.614;5.530;2023-12-07T08:17:38;28.95;;;12.60;;
59788;SDS011;47353;51.614;5.530;2023-12-07T08:20:07;41.42;;;13.18;;
59788;SDS011;47353;51.614;5.530;2023-12-07T08:22:35;30.95;;;12.43;;
59788;SDS011;47353;51.614;5.530;2023-12-07T08:25:02;30.83;;;13.18;;
59788;SDS011;47353;51.614;5.530;2023-12-07T08:27:29;43.53;;;13.80;;
59788;SDS011;47353;51.614;5.530;2023-12-07T08:29:54;46.00;;;14.32;;
59788;SDS011;47353;51.614;5.530;2023-12-07T08:32:20;31.60;;;13.65;;
59788;SDS011;47353;51.614;5.530;2023-12-07T08:34:46;40.38;;;14.43;;
59788;SDS011;47353;51.614;5.530;2023-12-07T08:37:11;44.08;;;14.90;;
59788;SDS011;47353;51.614;5.530;2023-12-07T08:39:37;35.33;;;14.45;;
59788;SDS011;47353;51.614;5.530;2023-12-07T08:42:03;34.50;;;14.00;;
59788;SDS011;47353;51.614;5.530;2023-12-07T08:44:28;54.03;;;16.60;;
59788;SDS011;47353;51.614;5.530;2023-12-07T08:46:54;57.97;;;17.23;;
59788;SDS011;47353;51.614;5.530;2023-12-07T08:49:19;55.60;;;17.42;;
59788;SDS011;47353;51.614;5.530;2023-12-07T08:51:44;43.63;;;15.82;;
59788;SDS011;47353;51.614;5.530;2023-12-07T08:54:10;56.70;;;17.92;;
59788;SDS011;47353;51.614;5.530;2023-12-07T08:56:35;50.78;;;17.67;;
59788;SDS011;47353;51.614;5.530;2023-12-07T08:59:01;46.25;;;16.52;;
59788;SDS011;47353;51.614;5.530;2023-12-07T09:01:27;66.28;;;17.42;;
59788;SDS011;47353;51.614;5.530;2023-12-07T09:03:52;52.90;;;19.02;;
59788;SDS011;47353;51.614;5.530;2023-12-07T09:06:18;64.40;;;18.90;;
59788;SDS011;47353;51.614;5.530;2023-12-07T09:08:43;48.03;;;17.65;;
59788;SDS011;47353;51.614;5.530;2023-12-07T09:11:09;53.83;;;17.95;;
59788;SDS011;47353;51.614;5.530;2023-12-07T09:13:35;49.95;;;17.88;;
59788;SDS011;47353;51.614;5.530;2023-12-07T09:16:00;48.80;;;18.25;;
59788;SDS011;47353;51.614;5.530;2023-12-07T09:18:26;50.28;;;17.88;;
59788;SDS011;47353;51.614;5.530;2023-12-07T09:20:51;49.58;;;19.60;;
59788;SDS011;47353;51.614;5.530;2023-12-07T09:23:16;46.97;;;17.35;;
59788;SDS011;47353;51.614;5.530;2023-12-07T09:25:42;51.03;;;18.88;;
59788;SDS011;47353;51.614;5.530;2023-12-07T09:28:08;48.80;;;17.77;;
59788;SDS011;47353;51.614;5.530;2023-12-07T09:30:34;54.38;;;19.55;;
59788;SDS011;47353;51.614;5.530;2023-12-07T09:33:00;49.88;;;17.98;;
59788;SDS011;47353;51.614;5.530;2023-12-07T09:35:29;47.00;;;17.73;;
59788;SDS011;47353;51.614;5.530;2023-12-07T09:37:54;47.72;;;18.10;;
59788;SDS011;47353;51.614;5.530;2023-12-07T09:40:20;77.45;;;20.88;;
59788;SDS011;47353;51.614;5.530;2023-12-07T09:42:47;50.08;;;18.98;;
59788;SDS011;47353;51.614;5.530;2023-12-07T09:45:14;51.00;;;19.13;;
59788;SDS011;47353;51.614;5.530;2023-12-07T09:47:42;51.85;;;18.88;;
59788;SDS011;47353;51.614;5.530;2023-12-07T09:50:08;48.63;;;18.80;;
59788;SDS011;47353;51.614;5.530;2023-12-07T09:52:34;49.80;;;19.75;;
59788;SDS011;47353;51.614;5.530;2023-12-07T09:55:02;54.33;;;20.27;;
59788;SDS011;47353;51.614;5.530;2023-12-07T09:57:28;54.13;;;22.13;;
59788;SDS011;47353;51.614;5.530;2023-12-07T09:59:54;51.00;;;19.58;;
59788;SDS011;47353;51.614;5.530;2023-12-07T10:02:21;51.97;;;20.35;;
59788;SDS011;47353;51.614;5.530;2023-12-07T10:04:47;51.70;;;19.38;;
59788;SDS011;47353;51.614;5.530;2023-12-07T10:07:13;64.20;;;21.85;;
59788;SDS011;47353;51.614;5.530;2023-12-07T10:09:39;48.38;;;19.17;;
59788;SDS011;47353;51.614;5.530;2023-12-07T10:12:08;46.28;;;19.02;;
59788;SDS011;47353;51.614;5.530;2023-12-07T10:14:34;43.50;;;18.50;;
59788;SDS011;47353;51.614;5.530;2023-12-07T10:16:59;41.90;;;17.08;;
59788;SDS011;47353;51.614;5.530;2023-12-07T10:19:25;40.92;;;17.80;;
59788;SDS011;47353;51.614;5.530;2023-12-07T10:21:52;43.67;;;18.60;;
59788;SDS011;47353;51.614;5.530;2023-12-07T10:24:19;42.05;;;17.95;;
59788;SDS011;47353;51.614;5.530;2023-12-07T10:26:45;46.10;;;19.17;;
59788;SDS011;47353;51.614;5.530;2023-12-07T10:29:12;41.03;;;17.38;;
59788;SDS011;47353;51.614;5.530;2023-12-07T10:31:37;39.53;;;17.52;;
59788;SDS011;47353;51.614;5.530;2023-12-07T10:34:04;36.78;;;17.33;;
59788;SDS011;47353;51.614;5.530;2023-12-07T10:36:29;38.80;;;17.67;;
59788;SDS011;47353;51.614;5.530;2023-12-07T10:38:55;36.80;;;17.65;;
59788;SDS011;47353;51.614;5.530;2023-12-07T10:41:21;35.38;;;16.80;;
59788;SDS011;47353;51.614;5.530;2023-12-07T10:43:52;30.05;;;16.15;;
59788;SDS011;47353;51.614;5.530;2023-12-07T10:46:19;31.85;;;16.92;;
59788;SDS011;47353;51.614;5.530;2023-12-07T10:48:47;31.35;;;16.00;;
59788;SDS011;47353;51.614;5.530;2023-12-07T10:51:17;28.65;;;15.63;;
59788;SDS011;47353;51.614;5.530;2023-12-07T10:53:55;34.10;;;17.05;;
59788;SDS011;47353;51.614;5.530;2023-12-07T10:56:32;34.10;;;17.10;;
59788;SDS011;47353;51.614;5.530;2023-12-07T10:59:18;30.38;;;17.08;;
59788;SDS011;47353;51.614;5.530;2023-12-07T11:01:44;31.35;;;16.88;;
59788;SDS011;47353;51.614;5.530;2023-12-07T11:04:12;30.58;;;16.75;;
59788;SDS011;47353;51.614;5.530;2023-12-07T11:06:42;27.23;;;15.73;;
59788;SDS011;47353;51.614;5.530;2023-12-07T11:09:16;27.35;;;16.27;;
59788;SDS011;47353;51.614;5.530;2023-12-07T11:11:51;29.38;;;16.63;;
59788;SDS011;47353;51.614;5.530;2023-12-07T11:16:48;25.88;;;14.95;;
59788;SDS011;47353;51.614;5.530;2023-12-07T11:19:56;27.50;;;16.17;;
59788;SDS011;47353;51.614;5.530;2023-12-07T11:22:08;25.25;;;14.93;;
59788;SDS011;47353;51.614;5.530;2023-12-07T11:24:36;23.55;;;14.75;;
59788;SDS011;47353;51.614;5.530;2023-12-07T11:27:01;21.33;;;14.00;;
59788;SDS011;47353;51.614;5.530;2023-12-07T11:29:31;21.25;;;13.18;;
59788;SDS011;47353;51.614;5.530;2023-12-07T11:31:58;21.98;;;13.65;;
59788;SDS011;47353;51.614;5.530;2023-12-07T11:37:04;18.50;;;12.85;;
59788;SDS011;47353;51.614;5.530;2023-12-07T11:39:39;18.92;;;12.52;;
59788;SDS011;47353;51.614;5.530;2023-12-07T11:42:18;19.75;;;13.50;;
59788;SDS011;47353;51.614;5.530;2023-12-07T11:44:47;20.58;;;14.00;;
59788;SDS011;47353;51.614;5.530;2023-12-07T11:47:16;21.80;;;13.90;;
59788;SDS011;47353;51.614;5.530;2023-12-07T11:49:44;20.80;;;14.75;;
59788;SDS011;47353;51.614;5.530;2023-12-07T11:52:13;21.98;;;14.40;;
59788;SDS011;47353;51.614;5.530;2023-12-07T11:54:40;21.92;;;14.90;;
59788;SDS011;47353;51.614;5.530;2023-12-07T11:57:08;24.98;;;15.02;;
59788;SDS011;47353;51.614;5.530;2023-12-07T11:59:34;22.02;;;14.85;;
59788;SDS011;47353;51.614;5.530;2023-12-07T12:01:59;21.33;;;14.77;;
59788;SDS011;47353;51.614;5.530;2023-12-07T12:04:28;22.38;;;14.95;;
59788;SDS011;47353;51.614;5.530;2023-12-07T12:06:53;21.48;;;14.55;;
59788;SDS011;47353;51.614;5.530;2023-12-07T12:09:19;19.63;;;13.60;;
59788;SDS011;47353;51.614;5.530;2023-12-07T12:11:45;19.25;;;14.13;;
59788;SDS011;47353;51.614;5.530;2023-12-07T12:14:14;20.73;;;14.18;;
59788;SDS011;47353;51.614;5.530;2023-12-07T12:16:43;18.90;;;13.88;;
59788;SDS011;47353;51.614;5.530;2023-12-07T12:19:10;16.88;;;13.30;;
59788;SDS011;47353;51.614;5.530;2023-12-07T12:21:38;18.92;;;13.70;;
59788;SDS011;47353;51.614;5.530;2023-12-07T12:24:05;17.00;;;13.35;;
59788;SDS011;47353;51.614;5.530;2023-12-07T12:26:31;19.00;;;14.00;;
59788;SDS011;47353;51.614;5.530;2023-12-07T12:29:02;18.33;;;12.75;;
59788;SDS011;47353;51.614;5.530;2023-12-07T12:31:28;16.67;;;13.27;;
59788;SDS011;47353;51.614;5.530;2023-12-07T12:33:54;18.92;;;13.52;;
59788;SDS011;47353;51.614;5.530;2023-12-07T12:36:20;17.75;;;13.48;;
59788;SDS011;47353;51.614;5.530;2023-12-07T12:38:51;17.20;;;12.90;;
59788;SDS011;47353;51.614;5.530;2023-12-07T12:41:20;17.42;;;13.75;;
59788;SDS011;47353;51.614;5.530;2023-12-07T12:43:46;17.85;;;13.45;;
59788;SDS011;47353;51.614;5.530;2023-12-07T12:46:12;20.25;;;13.73;;
59788;SDS011;47353;51.614;5.530;2023-12-07T12:48:52;20.35;;;15.00;;
59788;SDS011;47353;51.614;5.530;2023-12-07T12:51:22;20.17;;;14.75;;
59788;SDS011;47353;51.614;5.530;2023-12-07T12:53:50;19.83;;;14.90;;
59788;SDS011;47353;51.614;5.530;2023-12-07T12:56:15;21.10;;;15.80;;
59788;SDS011;47353;51.614;5.530;2023-12-07T12:58:41;21.85;;;14.57;;
59788;SDS011;47353;51.614;5.530;2023-12-07T13:01:07;26.10;;;18.63;;
59788;SDS011;47353;51.614;5.530;2023-12-07T13:03:33;28.60;;;19.80;;
59788;SDS011;47353;51.614;5.530;2023-12-07T13:05:58;28.05;;;20.27;;
59788;SDS011;47353;51.614;5.530;2023-12-07T13:08:24;29.17;;;20.83;;
59788;SDS011;47353;51.614;5.530;2023-12-07T13:10:49;30.98;;;20.92;;
59788;SDS011;47353;51.614;5.530;2023-12-07T13:13:15;31.05;;;21.48;;
59788;SDS011;47353;51.614;5.530;2023-12-07T13:15:41;26.30;;;19.13;;
59788;SDS011;47353;51.614;5.530;2023-12-07T13:18:06;29.77;;;20.48;;
59788;SDS011;47353;51.614;5.530;2023-12-07T13:20:32;28.17;;;19.00;;
59788;SDS011;47353;51.614;5.530;2023-12-07T13:22:57;29.17;;;19.25;;
59788;SDS011;47353;51.614;5.530;2023-12-07T13:25:23;27.52;;;18.48;;
59788;SDS011;47353;51.614;5.530;2023-12-07T13:27:48;27.58;;;18.00;;
59788;SDS011;47353;51.614;5.530;2023-12-07T13:30:14;27.55;;;17.55;;
59788;SDS011;47353;51.614;5.530;2023-12-07T13:32:39;25.50;;;16.35;;
59788;SDS011;47353;51.614;5.530;2023-12-07T13:35:05;27.58;;;17.75;;
59788;SDS011;47353;51.614;5.530;2023-12-07T13:37:31;27.75;;;17.48;;
59788;SDS011;47353;51.614;5.530;2023-12-07T13:39:57;27.23;;;16.65;;
59788;SDS011;47353;51.614;5.530;2023-12-07T13:42:24;26.13;;;15.60;;
59788;SDS011;47353;51.614;5.530;2023-12-07T13:44:57;26.25;;;15.15;;
59788;SDS011;47353;51.614;5.530;2023-12-07T13:47:25;28.05;;;16.02;;
59788;SDS011;47353;51.614;5.530;2023-12-07T13:49:59;26.17;;;15.75;;
59788;SDS011;47353;51.614;5.530;2023-12-07T13:52:25;28.35;;;16.73;;
59788;SDS011;47353;51.614;5.530;2023-12-07T13:54:52;27.85;;;16.30;;
59788;SDS011;47353;51.614;5.530;2023-12-07T13:57:18;28.88;;;17.02;;
59788;SDS011;47353;51.614;5.530;2023-12-07T13:59:44;29.42;;;17.80;;
59788;SDS011;47353;51.614;5.530;2023-12-07T14:02:10;28.73;;;17.13;;
59788;SDS011;47353;51.614;5.530;2023-12-07T14:04:35;28.38;;;16.55;;
59788;SDS011;47353;51.614;5.530;2023-12-07T14:07:13;28.10;;;16.20;;
59788;SDS011;47353;51.614;5.530;2023-12-07T14:09:40;24.15;;;15.57;;
59788;SDS011;47353;51.614;5.530;2023-12-07T14:12:08;30.25;;;17.13;;
59788;SDS011;47353;51.614;5.530;2023-12-07T14:14:35;24.10;;;15.80;;
59788;SDS011;47353;51.614;5.530;2023-12-07T14:17:01;26.02;;;15.80;;
59788;SDS011;47353;51.614;5.530;2023-12-07T14:19:27;24.85;;;14.75;;
59788;SDS011;47353;51.614;5.530;2023-12-07T14:21:53;25.27;;;15.30;;
59788;SDS011;47353;51.614;5.530;2023-12-07T14:24:19;27.58;;;16.73;;
59788;SDS011;47353;51.614;5.530;2023-12-07T14:26:44;27.58;;;15.93;;
59788;SDS011;47353;51.614;5.530;2023-12-07T14:29:10;29.05;;;17.10;;
59788;SDS011;47353;51.614;5.530;2023-12-07T14:31:40;32.33;;;18.10;;
59788;SDS011;47353;51.614;5.530;2023-12-07T14:34:05;30.17;;;17.55;;
59788;SDS011;47353;51.614;5.530;2023-12-07T14:36:31;29.38;;;18.42;;
59788;SDS011;47353;51.614;5.530;2023-12-07T14:38:56;32.95;;;18.42;;
59788;SDS011;47353;51.614;5.530;2023-12-07T14:41:22;31.85;;;18.83;;